Time;durP1;ratioP1;P1;durP2;ratioP2;P2;SDS_P1;SDS_P2;PMS_P1;PMS_P2;Temp;Humidity;BMP_temperature;BMP_pressure;BME280_temperature;BME280_humidity;BME280_pressure;Samples;Min_cycle;Max_cycle;Signal;HPM_P1;HPM_P2
2023/09/10 00:02:14;;;;;;;0.00;0.00;;;;;;;29.46;51.87;101812.41;5062821;28;20571;-68
2023/09/10 00:04:40;;;;;;;0.00;0.00;;;;;;;29.46;52.20;101820.69;5068597;28;20037;-68
2023/09/10 00:07:05;;;;;;;0.00;0.00;;;;;;;29.21;52.19;101819.56;5072007;28;20484;-69
2023/09/10 00:09:31;;;;;;;0.00;0.00;;;;;;;29.23;52.31;101816.47;5069238;28;20397;-69
2023/09/10 00:11:56;;;;;;;0.00;0.00;;;;;;;29.22;52.30;101812.91;5069857;28;20039;-68
2023/09/10 00:14:21;;;;;;;0.00;0.00;;;;;;;29.19;52.45;101809.94;5071196;28;20020;-68
2023/09/10 00:16:47;;;;;;;0.00;0.00;;;;;;;29.46;51.96;101802.09;5056965;28;20154;-67
2023/09/10 00:19:12;;;;;;;0.00;0.00;;;;;;;29.47;52.23;101812.06;5056696;28;20056;-68
2023/09/10 00:21:38;;;;;;;0.00;0.00;;;;;;;29.35;52.37;101806.38;5058392;28;20029;-68
2023/09/10 00:24:04;;;;;;;0.00;0.00;;;;;;;29.48;51.42;101818.41;5056253;28;20037;-69
2023/09/10 00:26:29;;;;;;;0.00;0.00;;;;;;;29.26;52.11;101811.13;5070047;28;20724;-68
2023/09/10 00:28:55;;;;;;;0.00;0.00;;;;;;;29.20;52.40;101809.66;5060009;28;20028;-68
2023/09/10 00:31:20;;;;;;;0.00;0.00;;;;;;;29.14;52.37;101804.59;5064568;28;20055;-68
2023/09/10 00:33:46;;;;;;;0.00;0.00;;;;;;;29.37;51.83;101803.25;5064373;28;20372;-68
2023/09/10 00:36:11;;;;;;;0.00;0.00;;;;;;;29.20;52.09;101793.03;5070081;28;20029;-67
2023/09/10 00:38:37;;;;;;;0.00;0.00;;;;;;;29.33;51.52;101799.53;5069026;28;20033;-68
2023/09/10 00:41:06;;;;;;;0.00;0.00;;;;;;;29.27;51.72;101800.81;5071357;28;20021;-69
2023/09/10 00:43:32;;;;;;;0.00;0.00;;;;;;;29.12;52.01;101801.31;5059469;28;20132;-68
2023/09/10 00:45:57;;;;;;;0.00;0.00;;;;;;;28.98;52.26;101797.88;5054937;28;20033;-68
2023/09/10 00:48:23;;;;;;;0.00;0.00;;;;;;;29.00;52.35;101807.50;5064323;28;20033;-68
2023/09/10 00:50:48;;;;;;;0.00;0.00;;;;;;;29.22;51.46;101795.47;5056187;28;20033;-67
2023/09/10 00:53:14;;;;;;;0.00;0.00;;;;;;;29.21;51.40;101797.41;5055710;28;20094;-69
2023/09/10 00:55:40;;;;;;;0.00;0.00;;;;;;;29.35;51.11;101800.00;5054817;28;20496;-69
2023/09/10 00:58:05;;;;;;;0.00;0.00;;;;;;;29.14;51.99;101801.81;5066394;28;20040;-68
2023/09/10 01:00:32;;;;;;;0.00;0.00;;;;;;;29.22;51.71;101804.59;5084541;28;20086;-68
2023/09/10 01:02:59;;;;;;;0.00;0.00;;;;;;;29.13;52.04;101802.94;5069999;28;20063;-67
2023/09/10 01:05:24;;;;;;;0.00;0.00;;;;;;;29.24;51.63;101795.97;5067168;28;20028;-67
2023/09/10 01:07:50;;;;;;;0.00;0.00;;;;;;;29.07;52.08;101796.75;5061055;28;20103;-67
2023/09/10 01:10:16;;;;;;;0.00;0.00;;;;;;;29.18;51.43;101806.41;5064012;28;20040;-69
2023/09/10 01:12:50;;;;;;;0.00;0.00;;;;;;;29.21;51.71;101811.25;5060388;28;20037;-67
2023/09/10 01:15:34;;;;;;;0.00;0.00;;;;;;;29.02;52.18;101802.44;5065251;28;20028;-69
2023/09/10 01:18:18;;;;;;;0.00;0.00;;;;;;;29.04;51.90;101814.00;5069211;28;20032;-69
2023/09/10 01:20:46;;;;;;;0.00;0.00;;;;;;;29.11;51.48;101816.31;5072788;28;20484;-69
2023/09/10 01:23:25;;;;;;;0.20;0.05;;;;;;;28.84;53.11;101820.19;5070990;28;20027;-68
2023/09/10 01:25:51;;;;;;;0.00;0.00;;;;;;;28.73;52.12;101823.59;5068483;28;20515;-69
2023/09/10 01:28:16;;;;;;;0.00;0.00;;;;;;;28.73;52.76;101827.19;5070717;28;20032;-68
2023/09/10 01:30:42;;;;;;;0.00;0.00;;;;;;;28.68;52.72;101824.53;5058790;28;20044;-68
2023/09/10 01:33:20;;;;;;;0.00;0.00;;;;;;;28.70;52.41;101819.50;5057579;28;20051;-68
2023/09/10 01:36:04;;;;;;;0.00;0.00;;;;;;;28.84;52.62;101830.44;5079323;28;20036;-69
2023/09/10 01:38:40;;;;;;;0.00;0.00;;;;;;;28.67;52.40;101836.75;5069222;28;20824;-67
2023/09/10 01:41:26;;;;;;;0.00;0.00;;;;;;;28.59;52.57;101837.56;5069294;28;20415;-68
2023/09/10 01:43:52;;;;;;;0.00;0.00;;;;;;;28.44;53.08;101840.75;5073882;28;20028;-67
2023/09/10 01:46:18;;;;;;;0.00;0.00;;;;;;;28.47;52.47;101829.84;5090888;28;20064;-68
2023/09/10 01:48:44;;;;;;;0.00;0.00;;;;;;;28.46;53.20;101832.94;5090833;28;20047;-68
2023/09/10 01:51:09;;;;;;;0.00;0.00;;;;;;;28.46;52.44;101830.19;5090869;28;20028;-69
2023/09/10 01:53:34;;;;;;;0.00;0.00;;;;;;;28.44;52.90;101838.78;5090772;28;20020;-68
2023/09/10 01:56:00;;;;;;;0.00;0.00;;;;;;;28.41;53.23;101841.38;5091040;28;20105;-68
2023/09/10 01:58:25;;;;;;;0.00;0.00;;;;;;;28.68;52.30;101848.66;5077353;28;20086;-68
2023/09/10 02:00:51;;;;;;;0.00;0.00;;;;;;;28.54;52.34;101843.19;5070518;28;20036;-69
2023/09/10 02:03:17;;;;;;;0.00;0.00;;;;;;;28.37;53.08;101846.75;5070568;28;20549;-68
2023/09/10 02:05:42;;;;;;;0.00;0.00;;;;;;;28.18;52.53;101843.41;5070261;28;20037;-69
2023/09/10 02:08:08;;;;;;;0.00;0.00;;;;;;;28.39;52.79;101840.88;5070912;28;20017;-68
2023/09/10 02:10:35;;;;;;;0.00;0.00;;;;;;;28.30;52.93;101840.88;5070240;28;20028;-68
2023/09/10 02:13:00;;;;;;;0.00;0.00;;;;;;;28.16;53.29;101844.88;5070168;28;20082;-68
2023/09/10 02:15:26;;;;;;;0.00;0.00;;;;;;;28.10;53.29;101841.44;5070205;28;20079;-68
2023/09/10 02:17:54;;;;;;;0.00;0.00;;;;;;;28.14;52.91;101842.44;5069998;28;20040;-68
2023/09/10 02:20:20;;;;;;;0.00;0.00;;;;;;;28.06;53.25;101848.72;5052016;28;20054;-67
2023/09/10 02:22:45;;;;;;;0.00;0.00;;;;;;;28.11;52.93;101856.88;5070515;28;20043;-69
2023/09/10 02:25:11;;;;;;;0.00;0.00;;;;;;;27.97;53.46;101850.63;5070137;28;20051;-68
2023/09/10 02:27:36;;;;;;;0.00;0.00;;;;;;;27.94;53.30;101844.88;5069963;28;20107;-68
2023/09/10 02:30:03;;;;;;;0.00;0.00;;;;;;;27.81;53.79;101844.66;5069822;28;20447;-68
2023/09/10 02:32:29;;;;;;;0.00;0.00;;;;;;;27.97;53.25;101849.81;5069773;28;20021;-68
2023/09/10 02:34:55;;;;;;;0.00;0.00;;;;;;;28.00;52.99;101843.66;5070103;28;20035;-68
2023/09/10 02:37:20;;;;;;;0.00;0.00;;;;;;;27.98;52.83;101838.44;5069521;28;20037;-68
2023/09/10 02:39:46;;;;;;;0.00;0.00;;;;;;;28.01;52.78;101845.28;5068889;28;20038;-68
2023/09/10 02:42:11;;;;;;;0.00;0.00;;;;;;;28.15;52.81;101848.75;5069232;28;20032;-68
2023/09/10 02:44:37;;;;;;;0.00;0.00;;;;;;;28.26;52.74;101836.28;5078574;28;20408;-68
2023/09/10 02:47:02;;;;;;;0.00;0.00;;;;;;;28.41;52.31;101839.44;5093986;28;20051;-68
2023/09/10 02:49:28;;;;;;;0.00;0.00;;;;;;;28.34;52.55;101841.81;5093162;28;20047;-68
2023/09/10 02:51:54;;;;;;;0.00;0.00;;;;;;;28.35;52.11;101839.88;5093175;28;20081;-68
2023/09/10 02:54:19;;;;;;;0.00;0.00;;;;;;;28.20;52.71;101841.16;5092669;28;20500;-68
2023/09/10 02:56:45;;;;;;;0.00;0.00;;;;;;;28.28;52.54;101848.66;5092878;28;20203;-68
2023/09/10 02:59:20;;;;;;;0.00;0.00;;;;;;;28.50;52.19;101850.53;5074488;28;20117;-68
2023/09/10 03:01:46;;;;;;;0.00;0.00;;;;;;;28.05;53.21;101838.78;5052864;28;20124;-68
2023/09/10 03:04:11;;;;;;;0.00;0.00;;;;;;;28.19;52.35;101845.03;5052531;28;20512;-69
2023/09/10 03:06:37;;;;;;;0.00;0.00;;;;;;;28.20;52.26;101834.81;5063649;28;20041;-68
2023/09/10 03:09:02;;;;;;;0.00;0.00;;;;;;;28.31;52.49;101839.72;5066795;28;20501;-68
2023/09/10 03:11:31;;;;;;;0.00;0.00;;;;;;;28.29;52.00;101833.69;5054260;28;20075;-68
2023/09/10 03:13:56;;;;;;;0.00;0.00;;;;;;;28.48;51.63;101837.00;5073460;28;20403;-67
2023/09/10 03:16:23;;;;;;;0.00;0.00;;;;;;;28.70;50.76;101836.09;5056335;28;20025;-68
2023/09/10 03:18:49;;;;;;;0.00;0.00;;;;;;;28.57;51.37;101840.66;5065912;28;20384;-68
2023/09/10 03:21:14;;;;;;;0.00;0.00;;;;;;;28.58;51.27;101839.50;5073166;28;20029;-68
2023/09/10 03:23:40;;;;;;;0.00;0.00;;;;;;;28.81;50.63;101839.41;5073536;28;20028;-68
2023/09/10 03:26:09;;;;;;;0.00;0.00;;;;;;;28.63;51.15;101827.47;5073807;28;20036;-69
2023/09/10 03:28:34;;;;;;;0.00;0.00;;;;;;;28.76;50.73;101832.06;5073196;28;20037;-68
2023/09/10 03:31:00;;;;;;;0.00;0.00;;;;;;;28.79;50.70;101825.88;5054313;28;20490;-68
2023/09/10 03:33:25;;;;;;;0.00;0.00;;;;;;;28.69;50.98;101823.44;5073077;28;20041;-69
2023/09/10 03:35:50;;;;;;;0.00;0.00;;;;;;;28.68;51.15;101823.75;5073075;28;20036;-68
2023/09/10 03:38:16;;;;;;;0.00;0.00;;;;;;;28.83;50.86;101818.56;5073586;28;20603;-68
2023/09/10 03:40:41;;;;;;;0.00;0.00;;;;;;;28.59;51.36;101819.03;5072905;28;20036;-68
2023/09/10 03:43:06;;;;;;;0.00;0.00;;;;;;;28.85;50.63;101824.59;5072956;28;20480;-68
2023/09/10 03:45:32;;;;;;;0.00;0.00;;;;;;;28.92;50.61;101818.56;5091009;28;20039;-69
2023/09/10 03:47:57;;;;;;;0.00;0.00;;;;;;;28.92;50.30;101816.63;5093018;28;20028;-67
2023/09/10 03:50:23;;;;;;;0.00;0.00;;;;;;;28.74;50.87;101814.97;5076777;28;20028;-67
2023/09/10 03:52:48;;;;;;;0.00;0.00;;;;;;;28.71;50.90;101823.91;5072744;28;20483;-68
2023/09/10 03:55:15;;;;;;;0.00;0.00;;;;;;;28.97;50.51;101808.13;5072116;28;20028;-68
2023/09/10 03:57:40;;;;;;;0.00;0.00;;;;;;;28.70;51.27;101819.50;5071964;28;20049;-69
2023/09/10 04:00:08;;;;;;;0.00;0.00;;;;;;;28.60;51.69;101820.63;5072536;28;20537;-68
2023/09/10 04:02:33;;;;;;;0.00;0.00;;;;;;;28.88;50.62;101812.03;5059228;28;20028;-67
2023/09/10 04:04:59;;;;;;;0.00;0.00;;;;;;;28.87;50.59;101818.72;5055949;28;20019;-67
2023/09/10 04:07:24;;;;;;;0.00;0.00;;;;;;;28.69;50.69;101815.13;5058197;28;20040;-66
2023/09/10 04:09:49;;;;;;;0.00;0.00;;;;;;;28.50;51.45;101807.06;5067514;28;20033;-67
2023/09/10 04:12:15;;;;;;;0.00;0.00;;;;;;;28.62;50.89;101812.81;5062579;28;20033;-68
2023/09/10 04:14:40;;;;;;;0.00;0.00;;;;;;;28.49;51.26;101805.47;5071963;28;20032;-68
2023/09/10 04:17:05;;;;;;;0.00;0.00;;;;;;;28.44;51.38;101802.81;5072717;28;20082;-67
2023/09/10 04:19:31;;;;;;;0.00;0.00;;;;;;;28.12;52.27;101799.63;5072375;28;20043;-68
2023/09/10 04:21:56;;;;;;;0.00;0.00;;;;;;;27.99;52.35;101800.56;5072050;28;20037;-68
2023/09/10 04:24:23;;;;;;;0.00;0.00;;;;;;;27.95;52.96;101802.34;5072284;28;20032;-68
2023/09/10 04:26:49;;;;;;;0.00;0.00;;;;;;;27.96;52.38;101807.53;5072152;28;20599;-68
2023/09/10 04:29:14;;;;;;;0.00;0.00;;;;;;;27.86;53.28;101807.78;5072493;28;20031;-69
2023/09/10 04:31:43;;;;;;;0.00;0.00;;;;;;;27.91;52.64;101804.06;5072064;28;20189;-68
2023/09/10 04:34:08;;;;;;;0.00;0.00;;;;;;;28.05;52.12;101813.91;5071929;28;20060;-67
2023/09/10 04:36:33;;;;;;;0.00;0.00;;;;;;;27.78;53.15;101812.13;5071960;28;20028;-67
2023/09/10 04:38:59;;;;;;;0.00;0.00;;;;;;;27.93;52.60;101802.59;5071650;28;20029;-68
2023/09/10 04:41:24;;;;;;;0.00;0.00;;;;;;;27.74;52.66;101805.63;5071559;28;20028;-67
2023/09/10 04:43:50;;;;;;;0.00;0.00;;;;;;;27.76;52.85;101808.88;5076160;28;20061;-68
2023/09/10 04:46:15;;;;;;;0.00;0.00;;;;;;;27.65;53.63;101812.22;5091804;28;20035;-69
2023/09/10 04:48:41;;;;;;;0.00;0.00;;;;;;;27.92;53.20;101817.56;5091942;28;20046;-67
2023/09/10 04:51:07;;;;;;;0.00;0.00;;;;;;;27.73;52.97;101811.47;5091734;28;20047;-67
2023/09/10 04:53:32;;;;;;;0.00;0.00;;;;;;;27.65;53.19;101813.06;5091736;28;20028;-68
2023/09/10 04:55:59;;;;;;;0.00;0.00;;;;;;;27.61;53.13;101819.50;5072251;28;20049;-68
2023/09/10 04:58:24;;;;;;;0.00;0.00;;;;;;;27.41;53.85;101823.59;5071184;28;20040;-68
2023/09/10 05:00:52;;;;;;;0.00;0.00;;;;;;;27.63;53.27;101817.25;5071248;28;20040;-69
2023/09/10 05:03:18;;;;;;;0.00;0.00;;;;;;;27.63;53.31;101820.00;5071261;28;20032;-68
2023/09/10 05:05:44;;;;;;;0.00;0.00;;;;;;;27.63;53.53;101818.06;5070433;28;20048;-68
2023/09/10 05:08:09;;;;;;;0.00;0.00;;;;;;;27.68;53.26;101809.63;5071500;28;20078;-67
2023/09/10 05:10:34;;;;;;;0.00;0.00;;;;;;;27.57;53.35;101816.56;5053033;28;20028;-68
2023/09/10 05:13:00;;;;;;;0.00;0.00;;;;;;;27.77;53.27;101821.53;5070946;28;20040;-68
2023/09/10 05:15:25;;;;;;;0.00;0.00;;;;;;;27.53;53.64;101823.84;5070872;28;20032;-68
2023/09/10 05:17:50;;;;;;;0.00;0.00;;;;;;;27.92;52.57;101819.50;5070820;28;20086;-67
2023/09/10 05:20:16;;;;;;;0.00;0.00;;;;;;;27.70;53.53;101831.41;5071174;28;20024;-68
2023/09/10 05:22:41;;;;;;;0.00;0.00;;;;;;;27.62;53.74;101827.47;5070621;28;20044;-68
2023/09/10 05:25:07;;;;;;;0.00;0.00;;;;;;;27.84;53.18;101832.16;5070692;28;20415;-67
2023/09/10 05:27:32;;;;;;;0.00;0.00;;;;;;;27.85;52.66;101827.44;5070711;28;20041;-67
2023/09/10 05:29:58;;;;;;;0.00;0.00;;;;;;;27.93;52.97;101833.00;5070804;28;20036;-69
2023/09/10 05:32:23;;;;;;;0.00;0.00;;;;;;;28.04;52.15;101833.59;5070536;28;20144;-69
2023/09/10 05:34:48;;;;;;;0.00;0.00;;;;;;;28.34;51.67;101843.81;5071383;28;20105;-68
2023/09/10 05:37:14;;;;;;;0.00;0.00;;;;;;;28.39;52.04;101832.59;5070242;28;20082;-69
2023/09/10 05:39:39;;;;;;;0.00;0.00;;;;;;;28.70;51.68;101835.31;5070652;28;20059;-67
2023/09/10 05:42:04;;;;;;;0.00;0.00;;;;;;;28.32;52.72;101846.06;5079133;28;20036;-67
2023/09/10 05:44:30;;;;;;;0.00;0.00;;;;;;;28.10;53.75;101838.66;5090329;28;20491;-68
2023/09/10 05:46:55;;;;;;;0.00;0.00;;;;;;;28.21;54.01;101841.94;5091187;28;20016;-67
2023/09/10 05:49:21;;;;;;;0.00;0.00;;;;;;;28.23;53.22;101843.25;5090357;28;20511;-67
2023/09/10 05:51:46;;;;;;;0.00;0.00;;;;;;;28.40;52.85;101842.53;5074328;28;20028;-68
2023/09/10 05:54:12;;;;;;;0.00;0.00;;;;;;;28.07;53.83;101838.50;5070117;28;20492;-68
2023/09/10 05:56:38;;;;;;;0.00;0.00;;;;;;;28.31;53.07;101847.19;5070008;28;20070;-68
2023/09/10 05:59:03;;;;;;;0.00;0.00;;;;;;;28.52;52.54;101848.25;5070501;28;20419;-68
2023/09/10 06:01:29;;;;;;;0.00;0.00;;;;;;;28.30;53.74;101851.94;5069970;28;20094;-68
2023/09/10 06:03:54;;;;;;;0.00;0.00;;;;;;;28.61;52.66;101858.25;5070077;28;20392;-68
2023/09/10 06:06:19;;;;;;;0.00;0.00;;;;;;;28.25;53.89;101848.47;5069967;28;20040;-68
2023/09/10 06:08:45;;;;;;;0.00;0.00;;;;;;;28.53;53.36;101855.41;5069986;28;20033;-68
2023/09/10 06:11:10;;;;;;;0.00;0.00;;;;;;;28.55;53.27;101858.69;5070201;28;20431;-68
2023/09/10 06:13:35;;;;;;;0.00;0.00;;;;;;;29.10;51.50;101862.53;5069815;28;20037;-69
2023/09/10 06:16:01;;;;;;;0.00;0.00;;;;;;;28.96;51.73;101867.41;5069586;28;20098;-68
2023/09/10 06:18:26;;;;;;;0.00;0.00;;;;;;;29.28;51.37;101863.41;5069620;28;20040;-68
2023/09/10 06:20:52;;;;;;;0.00;0.00;;;;;;;29.25;51.33;101864.84;5069728;28;20037;-68
2023/09/10 06:23:17;;;;;;;0.00;0.00;;;;;;;29.54;50.58;101866.97;5070377;28;20083;-68
2023/09/10 06:25:43;;;;;;;0.00;0.00;;;;;;;29.47;50.86;101863.88;5085555;28;20047;-68
2023/09/10 06:28:09;;;;;;;0.00;0.00;;;;;;;29.52;50.77;101858.97;5068478;28;20037;-68
2023/09/10 06:30:34;;;;;;;0.00;0.00;;;;;;;29.49;50.43;101867.13;5069861;28;20055;-69
2023/09/10 06:32:59;;;;;;;0.00;0.00;;;;;;;29.59;50.71;101869.56;5069630;28;20044;-69
2023/09/10 06:35:25;;;;;;;0.00;0.00;;;;;;;29.88;49.96;101866.09;5069763;28;20476;-68
2023/09/10 06:37:51;;;;;;;0.00;0.00;;;;;;;29.68;50.77;101870.34;5074715;28;20089;-68
2023/09/10 06:40:16;;;;;;;0.00;0.00;;;;;;;29.90;49.92;101883.22;5089891;28;20036;-68
2023/09/10 06:42:44;;;;;;;0.00;0.00;;;;;;;29.96;49.95;101870.81;5089986;28;20029;-68
2023/09/10 06:45:09;;;;;;;0.00;0.00;;;;;;;29.87;50.31;101876.41;5089502;28;20050;-68
2023/09/10 06:47:35;;;;;;;0.00;0.00;;;;;;;30.13;49.59;101868.00;5077462;28;20094;-68
2023/09/10 06:50:00;;;;;;;0.00;0.00;;;;;;;30.24;49.70;101877.56;5070149;28;20350;-67
2023/09/10 06:52:25;;;;;;;0.00;0.00;;;;;;;30.31;49.21;101878.72;5069219;28;20627;-68
2023/09/10 06:54:51;;;;;;;0.00;0.00;;;;;;;30.45;48.54;101881.25;5069550;28;20477;-68
2023/09/10 06:57:16;;;;;;;0.00;0.00;;;;;;;30.35;49.23;101878.06;5069256;28;20051;-69
2023/09/10 06:59:41;;;;;;;0.00;0.00;;;;;;;30.59;48.97;101879.06;5065160;28;20499;-68
2023/09/10 07:02:07;;;;;;;0.00;0.00;;;;;;;30.55;48.67;101874.50;5069231;28;20052;-68
2023/09/10 07:04:32;;;;;;;0.00;0.00;;;;;;;30.50;49.52;101877.50;5068709;28;20028;-69
2023/09/10 07:06:58;;;;;;;0.00;0.00;;;;;;;30.58;49.18;101874.69;5068304;28;20036;-68
2023/09/10 07:09:23;;;;;;;0.00;0.00;;;;;;;30.54;49.31;101882.06;5068392;28;20175;-68
2023/09/10 07:11:50;;;;;;;0.00;0.00;;;;;;;30.67;49.00;101883.75;5068403;28;20115;-68
2023/09/10 07:14:16;;;;;;;0.00;0.00;;;;;;;30.71;48.91;101881.94;5069139;28;20024;-69
2023/09/10 07:16:42;;;;;;;0.00;0.00;;;;;;;30.72;49.30;101885.53;5068582;28;20044;-67
2023/09/10 07:19:07;;;;;;;0.00;0.00;;;;;;;30.96;48.45;101878.22;5068792;28;20024;-68
2023/09/10 07:21:32;;;;;;;0.00;0.00;;;;;;;30.90;48.96;101882.34;5068932;28;20051;-67
2023/09/10 07:23:58;;;;;;;0.00;0.00;;;;;;;30.87;48.92;101883.03;5068656;28;20028;-68
2023/09/10 07:26:23;;;;;;;0.00;0.00;;;;;;;30.88;49.69;101878.28;5068731;28;20032;-68
2023/09/10 07:28:49;;;;;;;0.00;0.00;;;;;;;31.38;47.92;101884.63;5070368;28;20039;-68
2023/09/10 07:31:14;;;;;;;0.00;0.00;;;;;;;31.28;48.56;101879.44;5072241;28;20033;-69
2023/09/10 07:33:40;;;;;;;0.00;0.00;;;;;;;31.06;49.23;101890.88;5073033;28;20443;-68
2023/09/10 07:36:05;;;;;;;0.00;0.00;;;;;;;31.12;50.05;101889.53;5053364;28;20037;-69
2023/09/10 07:38:31;;;;;;;0.00;0.00;;;;;;;31.48;48.64;101895.34;5072475;28;20024;-68
2023/09/10 07:40:57;;;;;;;0.00;0.00;;;;;;;31.53;48.57;101888.75;5072082;28;20028;-67
2023/09/10 07:43:23;;;;;;;0.00;0.00;;;;;;;31.67;48.36;101887.28;5071807;28;20035;-68
2023/09/10 07:45:49;;;;;;;0.00;0.00;;;;;;;31.75;48.27;101882.78;5074297;28;20512;-68
2023/09/10 07:48:15;;;;;;;0.00;0.00;;;;;;;31.74;48.20;101886.75;5072227;28;20036;-70
2023/09/10 07:50:41;;;;;;;0.00;0.00;;;;;;;31.86;48.27;101886.78;5071962;28;20040;-70
2023/09/10 07:53:06;;;;;;;0.00;0.00;;;;;;;31.90;48.27;101887.72;5072282;28;20020;-69
2023/09/10 07:55:34;;;;;;;0.00;0.00;;;;;;;31.96;48.21;101894.72;5071922;28;20056;-68
2023/09/10 07:58:00;;;;;;;0.00;0.00;;;;;;;32.02;47.99;101898.88;5071403;28;20087;-67
2023/09/10 08:00:25;;;;;;;0.00;0.00;;;;;;;32.04;47.92;101899.34;5071701;28;20028;-68
2023/09/10 08:02:50;;;;;;;0.00;0.00;;;;;;;32.07;48.42;101893.13;5071905;28;20048;-68
2023/09/10 08:05:16;;;;;;;0.00;0.00;;;;;;;32.22;47.93;101899.97;5072426;28;20032;-67
2023/09/10 08:07:41;;;;;;;0.00;0.00;;;;;;;32.43;48.02;101893.16;5078932;28;20099;-68
2023/09/10 08:10:07;;;;;;;0.00;0.00;;;;;;;32.37;47.75;101908.47;5071617;28;20024;-68
2023/09/10 08:12:33;;;;;;;0.00;0.00;;;;;;;32.23;48.03;101907.16;5071218;28;20044;-68
2023/09/10 08:14:58;;;;;;;0.00;0.00;;;;;;;32.47;47.58;101902.47;5071623;28;20039;-68
2023/09/10 08:17:24;;;;;;;0.00;0.00;;;;;;;32.57;47.62;101906.78;5071667;28;20020;-67
2023/09/10 08:19:49;;;;;;;0.00;0.00;;;;;;;32.60;47.11;101898.53;5072097;28;20072;-68
2023/09/10 08:22:15;;;;;;;0.00;0.00;;;;;;;32.68;47.01;101897.63;5071137;28;20044;-68
2023/09/10 08:24:41;;;;;;;0.00;0.00;;;;;;;32.79;47.04;101893.19;5071357;28;20055;-68
2023/09/10 08:27:12;;;;;;;0.00;0.00;;;;;;;32.84;47.28;101897.72;5071787;28;20452;-68
2023/09/10 08:29:37;;;;;;;0.00;0.00;;;;;;;32.79;47.10;101895.16;5071799;28;21179;-69
2023/09/10 08:32:03;;;;;;;0.00;0.00;;;;;;;32.99;47.10;101897.00;5055407;28;20059;-68
2023/09/10 08:34:28;;;;;;;0.00;0.00;;;;;;;33.16;46.56;101893.94;5052711;28;20059;-68
2023/09/10 08:36:54;;;;;;;0.00;0.00;;;;;;;32.77;47.09;101892.72;5085689;28;20396;-67
2023/09/10 08:39:19;;;;;;;0.00;0.00;;;;;;;33.32;46.18;101894.00;5070491;28;20106;-68
2023/09/10 08:41:50;;;;;;;0.00;0.00;;;;;;;33.56;45.31;101902.31;5069617;28;20086;-68
2023/09/10 08:44:19;;;;;;;0.00;0.00;;;;;;;33.76;44.66;101900.50;5071218;28;20020;-68
2023/09/10 08:46:49;;;;;;;0.00;0.00;;;;;;;34.08;44.23;101893.84;5070421;28;20730;-67
2023/09/10 08:49:15;;;;;;;0.00;0.00;;;;;;;34.09;43.66;101889.88;5069450;28;20033;-67
2023/09/10 08:51:41;;;;;;;0.00;0.00;;;;;;;33.56;45.59;101896.75;5069238;28;20032;-69
2023/09/10 08:54:07;;;;;;;0.00;0.00;;;;;;;34.22;43.71;101894.22;5069426;28;20035;-68
2023/09/10 08:56:33;;;;;;;0.00;0.00;;;;;;;33.99;44.19;101887.59;5066230;28;20044;-67
2023/09/10 08:59:03;;;;;;;0.00;0.00;;;;;;;34.16;43.56;101888.06;5049794;28;20559;-69
2023/09/10 09:01:28;;;;;;;0.00;0.00;;;;;;;34.31;43.03;101890.06;5049757;28;20052;-67
2023/09/10 09:03:54;;;;;;;0.00;0.00;;;;;;;34.63;42.23;101884.50;5049737;28;20100;-67
2023/09/10 09:06:20;;;;;;;0.00;0.00;;;;;;;34.76;42.18;101884.00;5049480;28;20053;-67
2023/09/10 09:08:50;;;;;;;0.00;0.00;;;;;;;34.23;43.16;101881.88;5048906;28;20033;-68
2023/09/10 09:11:16;;;;;;;0.00;0.00;;;;;;;34.67;42.14;101880.63;5049016;28;20555;-68
2023/09/10 09:13:44;;;;;;;0.00;0.00;;;;;;;35.01;40.78;101877.03;5049000;28;20108;-67
2023/09/10 09:16:11;;;;;;;0.00;0.00;;;;;;;34.99;41.01;101879.38;5049025;28;20033;-68
2023/09/10 09:18:37;;;;;;;0.00;0.00;;;;;;;35.15;40.81;101871.75;5052073;28;20037;-69
2023/09/10 09:21:16;;;;;;;0.00;0.00;;;;;;;35.54;40.44;101880.19;5049811;28;20432;-68
2023/09/10 09:24:03;;;;;;;0.00;0.00;;;;;;;35.68;39.81;101872.03;5047230;28;20032;-68
2023/09/10 09:26:29;;;;;;;0.00;0.00;;;;;;;35.64;39.35;101874.78;5038119;28;20060;-69
2023/09/10 09:28:56;;;;;;;0.00;0.00;;;;;;;35.60;39.05;101867.50;5070999;28;20415;-68
2023/09/10 09:31:22;;;;;;;0.00;0.00;;;;;;;35.08;40.59;101868.00;5049682;28;20041;-68
2023/09/10 09:33:47;;;;;;;0.00;0.00;;;;;;;35.63;39.46;101866.75;5050169;28;20099;-68
2023/09/10 09:36:13;;;;;;;0.00;0.00;;;;;;;36.01;38.57;101859.09;5045967;28;21381;-69
2023/09/10 09:38:47;;;;;;;0.00;0.00;;;;;;;36.18;38.85;101866.22;5048453;28;20044;-68
2023/09/10 09:41:16;;;;;;;0.00;0.00;;;;;;;35.75;38.47;101863.81;5060812;28;20052;-69
2023/09/10 09:43:42;;;;;;;0.00;0.00;;;;;;;36.31;37.54;101861.19;5063487;28;20469;-68
2023/09/10 09:46:08;;;;;;;0.00;0.00;;;;;;;36.21;38.69;101856.25;5045416;28;20025;-68
2023/09/10 09:48:34;;;;;;;0.00;0.00;;;;;;;36.50;37.84;101869.56;5050108;28;20437;-68
2023/09/10 09:51:01;;;;;;;0.00;0.00;;;;;;;36.70;37.52;101860.66;5031846;28;20049;-68
2023/09/10 09:53:28;;;;;;;0.00;0.00;;;;;;;36.75;36.87;101859.53;5048061;28;20820;-69
2023/09/10 09:55:55;;;;;;;0.00;0.00;;;;;;;36.89;36.79;101851.38;5049208;28;20044;-68
2023/09/10 09:58:21;;;;;;;0.00;0.00;;;;;;;37.13;36.64;101859.28;5044116;28;20393;-67
2023/09/10 10:00:46;;;;;;;0.00;0.00;;;;;;;36.90;35.37;101856.59;5043775;28;20103;-68
2023/09/10 10:03:12;;;;;;;0.00;0.00;;;;;;;36.75;36.39;101851.13;5062160;28;20040;-68
2023/09/10 10:05:37;;;;;;;0.00;0.00;;;;;;;37.10;35.87;101850.81;5030985;28;20582;-68
2023/09/10 10:08:06;;;;;;;0.00;0.00;;;;;;;37.08;35.32;101853.19;5049992;28;20123;-69
2023/09/10 10:10:33;;;;;;;0.00;0.00;;;;;;;37.26;34.47;101854.25;5067873;28;20032;-67
2023/09/10 10:13:00;;;;;;;0.00;0.00;;;;;;;37.64;34.30;101843.47;5073802;28;20037;-70
2023/09/10 10:15:26;;;;;;;0.00;0.00;;;;;;;37.70;34.30;101844.75;5079028;28;20047;-67
2023/09/10 10:17:53;;;;;;;0.00;0.00;;;;;;;36.60;36.65;101836.09;5059620;28;20040;-69
2023/09/10 10:20:20;;;;;;;0.00;0.00;;;;;;;36.83;36.22;101839.66;5073431;28;20050;-67
2023/09/10 10:22:46;;;;;;;0.00;0.00;;;;;;;37.15;35.72;101844.91;5079975;28;20040;-69
2023/09/10 10:25:12;;;;;;;0.00;0.00;;;;;;;37.96;34.32;101838.22;5080545;28;20123;-68
2023/09/10 10:27:42;;;;;;;0.00;0.00;;;;;;;38.34;33.35;101829.34;5078670;28;20068;-68
2023/09/10 10:30:07;;;;;;;0.00;0.00;;;;;;;38.21;33.79;101825.22;5078962;28;20115;-68
2023/09/10 10:32:41;;;;;;;0.00;0.00;;;;;;;38.31;33.99;101829.31;5081064;28;20081;-68
2023/09/10 10:35:09;;;;;;;0.00;0.00;;;;;;;38.51;33.21;101831.47;5078175;28;20024;-68
2023/09/10 10:37:57;;;;;;;0.00;0.00;;;;;;;38.91;32.09;101827.72;5078315;28;20074;-68
2023/09/10 10:40:31;;;;;;;0.00;0.00;;;;;;;38.51;31.36;101828.66;5076506;28;20036;-67
2023/09/10 10:43:09;;;;;;;0.00;0.00;;;;;;;38.69;32.48;101825.97;5078125;28;20067;-67
2023/09/10 10:45:34;;;;;;;0.00;0.00;;;;;;;39.13;31.45;101820.19;5072133;28;20106;-68
2023/09/10 10:48:07;;;;;;;0.00;0.00;;;;;;;39.10;31.21;101818.16;5077240;28;20033;-68
2023/09/10 10:50:35;;;;;;;0.00;0.00;;;;;;;38.51;32.06;101816.59;5067239;28;20033;-68
2023/09/10 10:53:09;;;;;;;0.00;0.00;;;;;;;39.38;30.29;101821.88;5086718;28;20034;-68
2023/09/10 10:55:35;;;;;;;0.00;0.00;;;;;;;39.59;30.27;101806.28;5068127;28;20033;-66
2023/09/10 10:58:01;;;;;;;0.00;0.00;;;;;;;38.65;31.89;101817.53;5050751;28;20459;-67
2023/09/10 11:00:28;;;;;;;0.00;0.00;;;;;;;39.42;30.44;101811.44;5049712;28;20048;-68
2023/09/10 11:03:13;;;;;;;0.00;0.00;;;;;;;39.35;31.21;101811.41;5073275;28;20040;-66
2023/09/10 11:05:53;;;;;;;0.00;0.00;;;;;;;39.94;29.36;101809.13;5066898;28;20512;-66
2023/09/10 11:08:26;;;;;;;0.00;0.00;;;;;;;40.04;28.93;101806.31;5053039;28;20091;-64
2023/09/10 11:10:52;;;;;;;0.00;0.00;;;;;;;40.18;28.66;101806.31;5073480;28;20722;-67
2023/09/10 11:13:18;;;;;;;0.00;0.00;;;;;;;40.04;28.82;101800.69;5073176;28;20036;-68
2023/09/10 11:16:05;;;;;;;0.00;0.00;;;;;;;40.45;28.47;101808.75;5073243;28;20032;-68
2023/09/10 11:18:36;;;;;;;0.00;0.00;;;;;;;40.17;28.92;101798.28;5073255;28;20111;-68
2023/09/10 11:21:12;;;;;;;0.00;0.00;;;;;;;40.31;28.48;101798.28;5053152;28;20040;-67
2023/09/10 11:23:40;;;;;;;0.00;0.00;;;;;;;40.55;27.85;101799.44;5053119;28;20037;-68